Time;durP1;ratioP1;P1;durP2;ratioP2;P2;SDS_P1;SDS_P2;PMS_P1;PMS_P2;Temp;Humidity;BMP_temperature;BMP_pressure;BME280_temperature;BME280_humidity;BME280_pressure;Samples;Min_cycle;Max_cycle;Signal;HPM_P1;HPM_P2
2021/09/09 00:00:52;;;;;;;10.53;8.90;;;;;;;21.35;55.88;96350.31;4968552;28;20508;-68
2021/09/09 00:03:18;;;;;;;9.13;8.23;;;;;;;21.33;55.91;96355.88;4984533;28;20193;-67
2021/09/09 00:05:44;;;;;;;13.67;8.63;;;;;;;21.31;55.87;96349.97;4988942;28;20417;-67
2021/09/09 00:08:10;;;;;;;12.50;8.87;;;;;;;21.28;56.34;96353.16;4998183;28;20433;-69
2021/09/09 00:10:36;;;;;;;11.37;8.70;;;;;;;21.27;56.17;96356.03;4998705;28;20170;-69
2021/09/09 00:13:02;;;;;;;10.37;9.27;;;;;;;21.24;56.15;96362.66;4981420;28;20544;-68
2021/09/09 00:15:28;;;;;;;12.27;9.10;;;;;;;21.20;56.42;96355.41;4986407;28;20201;-67
2021/09/09 00:17:54;;;;;;;10.07;9.00;;;;;;;21.15;56.32;96354.25;4987739;28;20461;-68
2021/09/09 00:20:19;;;;;;;10.70;9.23;;;;;;;21.11;56.30;96352.31;5002310;28;20201;-69
2021/09/09 00:22:45;;;;;;;12.83;9.00;;;;;;;21.10;56.43;96356.03;4986703;28;20276;-68
2021/09/09 00:25:11;;;;;;;10.40;9.30;;;;;;;21.04;56.54;96347.13;4994692;28;20269;-67
2021/09/09 00:27:36;;;;;;;12.03;9.27;;;;;;;21.00;56.63;96346.81;4981978;28;20182;-67
2021/09/09 00:30:03;;;;;;;9.53;8.53;;;;;;;20.98;56.52;96342.78;4978427;28;20292;-67
2021/09/09 00:32:29;;;;;;;13.13;9.90;;;;;;;20.94;56.84;96345.09;4979044;28;20289;-68
2021/09/09 00:34:54;;;;;;;9.87;8.90;;;;;;;20.91;57.02;96342.94;4978808;28;20598;-69
2021/09/09 00:37:20;;;;;;;15.00;9.10;;;;;;;20.91;57.06;96342.94;4974652;28;20186;-69
2021/09/09 00:39:45;;;;;;;11.93;9.50;;;;;;;20.90;56.99;96345.81;4972409;28;20178;-67
2021/09/09 00:42:11;;;;;;;10.20;9.20;;;;;;;20.86;56.80;96337.50;4963408;28;20553;-68
2021/09/09 00:44:37;;;;;;;18.50;9.43;;;;;;;20.86;57.06;96340.97;4969903;28;20184;-69
2021/09/09 00:47:05;;;;;;;15.20;8.77;;;;;;;20.84;57.10;96343.09;4974927;28;20190;-67
2021/09/09 00:49:32;;;;;;;9.17;8.27;;;;;;;20.85;57.30;96341.22;4974907;28;20182;-68
2021/09/09 00:51:58;;;;;;;11.00;9.20;;;;;;;20.83;57.12;96340.63;4974864;28;20445;-67
2021/09/09 00:54:24;;;;;;;11.33;8.60;;;;;;;20.89;57.39;96345.03;4969996;28;20517;-67
2021/09/09 00:56:50;;;;;;;10.53;8.60;;;;;;;20.93;56.91;96340.81;4971287;28;20770;-68
2021/09/09 00:59:17;;;;;;;11.00;8.60;;;;;;;21.06;56.71;96337.06;4967375;28;20545;-68
2021/09/09 01:01:44;;;;;;;12.73;8.67;;;;;;;21.15;56.24;96337.47;4974278;28;20237;-68
2021/09/09 01:04:09;;;;;;;10.03;9.07;;;;;;;21.23;56.06;96336.28;4974355;28;20421;-68
2021/09/09 01:06:35;;;;;;;11.20;7.67;;;;;;;21.29;55.83;96338.78;4974277;28;20424;-68
2021/09/09 01:09:01;;;;;;;10.90;9.50;;;;;;;21.37;55.96;96334.06;4973712;28;20651;-68
2021/09/09 01:11:27;;;;;;;9.57;8.67;;;;;;;21.35;55.69;96333.50;4973916;28;20281;-67
2021/09/09 01:13:53;;;;;;;12.63;9.67;;;;;;;21.42;55.38;96337.63;4962789;28;20542;-67
2021/09/09 01:16:19;;;;;;;12.30;9.20;;;;;;;21.42;55.38;96331.50;4971702;28;20194;-69
2021/09/09 01:18:45;;;;;;;9.10;8.20;;;;;;;21.51;55.24;96329.22;4973573;28;20429;-68
2021/09/09 01:21:10;;;;;;;9.50;8.40;;;;;;;21.53;55.59;96322.63;4971314;28;20480;-68
2021/09/09 01:23:36;;;;;;;9.27;7.97;;;;;;;21.57;55.12;96323.72;4969122;28;20177;-67
2021/09/09 01:26:03;;;;;;;11.27;8.53;;;;;;;21.54;55.16;96320.75;4973683;28;20731;-68
2021/09/09 01:28:29;;;;;;;14.93;9.47;;;;;;;21.53;55.29;96321.78;4973677;28;20924;-69
2021/09/09 01:30:55;;;;;;;10.03;9.03;;;;;;;21.51;55.42;96318.56;4973428;28;20434;-68
2021/09/09 01:33:20;;;;;;;10.03;8.90;;;;;;;21.51;54.90;96314.03;4973782;28;20209;-67
2021/09/09 01:35:46;;;;;;;12.00;9.00;;;;;;;21.44;55.45;96319.53;4972358;28;20648;-68
2021/09/09 01:38:22;;;;;;;14.90;9.33;;;;;;;21.44;55.59;96318.72;4966189;28;20189;-70
2021/09/09 01:40:47;;;;;;;12.73;9.17;;;;;;;21.42;55.47;96320.84;4965016;28;20256;-68
2021/09/09 01:43:13;;;;;;;11.13;8.97;;;;;;;21.36;55.79;96316.47;4965815;28;20528;-68
2021/09/09 01:45:38;;;;;;;12.33;8.87;;;;;;;21.33;55.57;96313.25;4968933;28;20213;-68
2021/09/09 01:48:04;;;;;;;10.30;8.43;;;;;;;21.32;56.09;96311.63;4973164;28;20190;-68
2021/09/09 01:50:30;;;;;;;11.53;9.50;;;;;;;21.29;56.33;96317.47;4972309;28;20192;-68
2021/09/09 01:52:55;;;;;;;12.80;9.00;;;;;;;21.25;56.26;96321.66;4973057;28;20206;-68
2021/09/09 01:55:21;;;;;;;10.17;9.17;;;;;;;21.29;56.08;96312.13;4967186;28;20232;-69
2021/09/09 01:57:47;;;;;;;9.67;8.67;;;;;;;21.24;56.28;96309.38;4966792;28;20181;-70
2021/09/09 02:00:13;;;;;;;9.30;8.40;;;;;;;21.31;56.52;96314.53;4973422;28;20264;-68
2021/09/09 02:02:39;;;;;;;10.53;7.87;;;;;;;21.34;55.95;96303.41;4973262;28;20344;-69
2021/09/09 02:05:05;;;;;;;10.90;8.77;;;;;;;21.33;55.97;96305.25;4973280;28;20429;-69
2021/09/09 02:07:31;;;;;;;12.60;9.47;;;;;;;21.33;56.05;96302.59;4972800;28;20936;-68
2021/09/09 02:09:56;;;;;;;12.63;8.73;;;;;;;21.32;56.28;96308.97;4972952;28;20174;-67
2021/09/09 02:12:22;;;;;;;11.50;9.37;;;;;;;21.31;56.06;96310.00;4969092;28;20265;-68
2021/09/09 02:14:47;;;;;;;11.80;8.63;;;;;;;21.33;56.03;96312.44;4965876;28;20189;-69
2021/09/09 02:17:13;;;;;;;9.37;8.40;;;;;;;21.26;56.29;96311.78;4972717;28;20276;-68
2021/09/09 02:19:39;;;;;;;10.83;8.80;;;;;;;21.25;56.58;96307.50;4973580;28;20611;-68
2021/09/09 02:22:04;;;;;;;10.23;9.13;;;;;;;21.33;56.23;96305.25;4965599;28;20205;-68
2021/09/09 02:24:30;;;;;;;9.60;8.60;;;;;;;21.26;56.49;96306.47;4961814;28;20179;-69
2021/09/09 02:26:55;;;;;;;10.57;9.47;;;;;;;21.31;56.29;96310.00;4968030;28;20174;-68
2021/09/09 02:29:21;;;;;;;10.43;9.13;;;;;;;21.26;56.54;96307.28;4972008;28;20189;-68
2021/09/09 02:31:46;;;;;;;12.57;8.80;;;;;;;21.31;56.18;96303.88;4972503;28;20348;-68
2021/09/09 02:34:12;;;;;;;9.50;8.43;;;;;;;21.42;56.07;96310.19;4972589;28;20178;-67
2021/09/09 02:36:38;;;;;;;9.93;8.43;;;;;;;21.44;55.81;96308.06;4972454;28;20708;-68
2021/09/09 02:39:03;;;;;;;12.53;9.10;;;;;;;21.41;55.83;96309.38;4964834;28;20182;-67
2021/09/09 02:41:29;;;;;;;11.67;8.50;;;;;;;21.42;55.84;96302.19;4972504;28;20198;-68
2021/09/09 02:43:54;;;;;;;11.90;8.90;;;;;;;21.31;56.02;96302.00;4964954;28;20476;-67
2021/09/09 02:46:20;;;;;;;13.90;9.20;;;;;;;21.40;55.78;96301.63;4972487;28;20672;-67
2021/09/09 02:48:45;;;;;;;11.17;9.27;;;;;;;21.32;56.14;96298.31;4972267;28;20181;-67
2021/09/09 02:51:11;;;;;;;11.93;8.30;;;;;;;21.22;55.88;96303.47;4960303;28;20237;-68
2021/09/09 02:53:37;;;;;;;8.90;8.00;;;;;;;21.32;55.79;96292.97;4967119;28;20201;-68
2021/09/09 02:56:03;;;;;;;9.77;8.80;;;;;;;21.28;55.87;96302.53;4972390;28;20239;-68
2021/09/09 02:58:28;;;;;;;9.10;8.20;;;;;;;21.26;56.23;96299.28;4965412;28;20704;-68
2021/09/09 03:00:54;;;;;;;11.03;8.50;;;;;;;21.46;54.96;96296.13;4972275;28;20312;-69
2021/09/09 03:03:21;;;;;;;13.37;9.43;;;;;;;21.45;54.90;96299.84;4972323;28;20198;-68
2021/09/09 03:05:47;;;;;;;11.60;8.40;;;;;;;21.57;54.35;96291.72;4972209;28;20525;-68
2021/09/09 03:08:12;;;;;;;12.30;7.40;;;;;;;21.53;54.70;96287.97;4971550;28;20421;-68
2021/09/09 03:10:38;;;;;;;9.60;7.70;;;;;;;21.53;54.31;96290.63;4972229;28;20419;-67
2021/09/09 03:13:03;;;;;;;9.83;8.73;;;;;;;21.46;54.62;96285.47;4964093;28;20210;-68
2021/09/09 03:15:29;;;;;;;8.77;7.90;;;;;;;21.43;54.80;96282.47;4968507;28;20182;-68
2021/09/09 03:17:55;;;;;;;8.93;8.07;;;;;;;21.37;55.22;96283.44;4971595;28;20185;-67
2021/09/09 03:20:20;;;;;;;9.20;8.30;;;;;;;21.43;54.89;96285.13;4972076;28;20182;-67
2021/09/09 03:22:46;;;;;;;11.30;8.77;;;;;;;21.49;55.00;96286.81;4964139;28;20198;-67
2021/09/09 03:25:12;;;;;;;9.93;8.70;;;;;;;21.47;54.56;96283.59;4971815;28;20548;-67
2021/09/09 03:27:37;;;;;;;13.20;8.70;;;;;;;21.49;54.48;96282.28;4971697;28;20184;-68
2021/09/09 03:30:03;;;;;;;10.20;8.00;;;;;;;21.45;54.99;96283.84;4969107;28;20202;-67
2021/09/09 03:32:29;;;;;;;10.03;8.60;;;;;;;21.73;53.93;96276.81;4971482;28;20209;-67
2021/09/09 03:34:55;;;;;;;15.50;8.37;;;;;;;21.57;54.61;96282.94;4971932;28;20801;-68
2021/09/09 03:37:20;;;;;;;8.70;7.80;;;;;;;21.78;53.34;96276.06;4962206;28;20189;-68
2021/09/09 03:39:46;;;;;;;10.50;9.27;;;;;;;21.66;54.14;96276.16;4956205;28;20175;-67
2021/09/09 03:42:11;;;;;;;9.33;8.33;;;;;;;21.52;54.55;96283.69;4957058;28;20283;-67
2021/09/09 03:44:37;;;;;;;9.10;7.97;;;;;;;21.58;54.28;96273.91;4975687;28;20260;-67
2021/09/09 03:47:03;;;;;;;9.77;8.70;;;;;;;21.78;53.96;96276.06;4972505;28;20250;-67
2021/09/09 03:49:28;;;;;;;9.90;9.00;;;;;;;21.76;53.93;96270.16;4969827;28;20671;-68
2021/09/09 03:51:54;;;;;;;12.40;9.03;;;;;;;21.69;54.13;96275.69;4975992;28;20197;-67
2021/09/09 03:54:20;;;;;;;11.50;8.30;;;;;;;21.74;53.83;96273.06;4976252;28;20237;-68
2021/09/09 03:56:45;;;;;;;14.23;9.27;;;;;;;21.59;54.01;96279.00;4968063;28;20186;-68
2021/09/09 03:59:11;;;;;;;20.47;8.60;;;;;;;21.69;54.17;96274.84;4968246;28;20190;-69
2021/09/09 04:01:36;;;;;;;10.77;8.53;;;;;;;21.74;54.07;96274.94;4975506;28;20217;-69
2021/09/09 04:04:02;;;;;;;11.50;8.20;;;;;;;21.65;54.31;96282.53;4975164;28;20190;-68
2021/09/09 04:06:28;;;;;;;9.30;8.40;;;;;;;21.78;53.49;96276.06;4974550;28;20193;-68
2021/09/09 04:08:53;;;;;;;16.23;9.63;;;;;;;21.59;54.31;96278.19;4975112;28;20193;-68
2021/09/09 04:11:19;;;;;;;10.87;7.93;;;;;;;21.52;54.50;96277.53;4970185;28;20197;-67
2021/09/09 04:13:44;;;;;;;13.13;7.90;;;;;;;21.67;54.30;96279.66;4974272;28;20209;-67
2021/09/09 04:16:10;;;;;;;9.80;8.30;;;;;;;21.69;54.22;96281.00;4975596;28;20182;-67
2021/09/09 04:18:35;;;;;;;10.60;8.43;;;;;;;21.72;53.49;96277.03;4975505;28;20195;-66
2021/09/09 04:21:01;;;;;;;10.13;8.43;;;;;;;21.61;54.28;96276.91;4974223;28;20272;-67
2021/09/09 04:23:26;;;;;;;8.73;7.83;;;;;;;21.47;54.46;96275.59;4969812;28;20206;-68
2021/09/09 04:25:52;;;;;;;11.13;9.27;;;;;;;21.35;54.72;96274.88;4974869;28;20190;-67
2021/09/09 04:28:18;;;;;;;13.33;8.50;;;;;;;21.43;54.70;96277.13;4974814;28;20209;-67
2021/09/09 04:30:43;;;;;;;11.07;8.63;;;;;;;21.53;54.40;96279.16;4974873;28;20205;-67
2021/09/09 04:33:09;;;;;;;9.07;8.17;;;;;;;21.49;54.59;96274.28;4979840;28;20205;-68
2021/09/09 04:35:34;;;;;;;11.83;9.33;;;;;;;21.32;55.19;96278.84;4979722;28;20272;-67
2021/09/09 04:38:00;;;;;;;9.27;8.17;;;;;;;21.30;54.87;96275.63;4969665;28;20645;-66
2021/09/09 04:40:26;;;;;;;9.80;8.90;;;;;;;21.28;54.98;96278.53;4972957;28;20589;-69
2021/09/09 04:42:51;;;;;;;11.13;8.47;;;;;;;21.31;54.72;96279.91;4971644;28;20683;-70
2021/09/09 04:45:17;;;;;;;12.17;8.30;;;;;;;21.28;55.22;96289.19;4974768;28;20264;-65
2021/09/09 04:47:42;;;;;;;13.30;8.60;;;;;;;21.11;55.82;96288.38;4974060;28;20178;-68
2021/09/09 04:50:08;;;;;;;10.53;9.47;;;;;;;21.14;55.63;96277.25;4974434;28;20855;-68
2021/09/09 04:52:34;;;;;;;10.37;9.27;;;;;;;21.22;55.34;96284.81;4974118;28;20225;-68
2021/09/09 04:54:59;;;;;;;10.43;8.60;;;;;;;20.90;56.01;96277.41;4968015;28;20421;-68
2021/09/09 04:57:25;;;;;;;12.67;9.43;;;;;;;21.07;55.50;96277.41;4970458;28;20187;-68
2021/09/09 04:59:51;;;;;;;14.23;8.70;;;;;;;21.14;55.51;96271.94;4971181;28;20640;-68
2021/09/09 05:02:16;;;;;;;12.03;7.97;;;;;;;20.94;56.02;96278.53;4974012;28;20202;-68
2021/09/09 05:04:42;;;;;;;10.27;8.37;;;;;;;20.88;56.14;96276.84;4974422;28;20272;-67
2021/09/09 05:07:07;;;;;;;11.30;8.80;;;;;;;21.11;55.68;96285.72;4973963;28;20194;-67
2021/09/09 05:09:33;;;;;;;14.37;9.07;;;;;;;21.06;55.52;96280.31;4974249;28;20177;-68
2021/09/09 05:11:58;;;;;;;10.53;8.60;;;;;;;21.09;55.56;96285.16;4962619;28;20217;-69
2021/09/09 05:14:24;;;;;;;9.77;8.77;;;;;;;21.03;55.48;96292.25;4961858;28;20188;-67
2021/09/09 05:16:50;;;;;;;13.70;8.97;;;;;;;21.23;55.35;96285.66;4973659;28;20260;-67
2021/09/09 05:19:15;;;;;;;11.23;8.67;;;;;;;21.18;55.28;96283.69;4972322;28;20269;-67
2021/09/09 05:21:42;;;;;;;10.20;9.10;;;;;;;21.23;55.50;96290.97;4967650;28;20289;-66
2021/09/09 05:24:08;;;;;;;11.23;9.47;;;;;;;21.29;55.07;96290.81;4973385;28;20201;-68
2021/09/09 05:26:33;;;;;;;9.93;8.70;;;;;;;21.53;54.28;96290.63;4973882;28;20848;-68
2021/09/09 05:28:59;;;;;;;16.40;10.07;;;;;;;21.32;55.12;96290.31;4973212;28;20437;-67
2021/09/09 05:31:25;;;;;;;12.50;8.60;;;;;;;21.52;53.98;96294.34;4972173;28;20178;-67
2021/09/09 05:33:50;;;;;;;10.23;8.40;;;;;;;21.39;54.81;96292.81;4966270;28;20228;-67
2021/09/09 05:36:16;;;;;;;12.10;8.70;;;;;;;21.62;54.05;96301.69;4973809;28;20193;-66
2021/09/09 05:38:42;;;;;;;9.67;8.30;;;;;;;21.75;53.25;96297.88;4966265;28;20186;-66
2021/09/09 05:41:07;;;;;;;9.70;8.60;;;;;;;21.96;52.65;96298.13;4963693;28;20225;-66
2021/09/09 05:43:33;;;;;;;11.20;8.20;;;;;;;22.16;52.23;96297.59;4973799;28;20212;-67
2021/09/09 05:45:58;;;;;;;11.70;7.70;;;;;;;21.98;52.87;96307.53;4973179;28;20189;-67
2021/09/09 05:48:24;;;;;;;8.60;7.73;;;;;;;22.35;51.77;96300.75;4971476;28;20190;-67
2021/09/09 05:50:50;;;;;;;12.83;8.23;;;;;;;22.41;51.59;96299.78;4962701;28;20189;-67
2021/09/09 05:53:15;;;;;;;8.20;7.40;;;;;;;22.65;51.01;96302.16;4973348;28;20210;-66
2021/09/09 05:55:41;;;;;;;9.30;7.13;;;;;;;22.76;50.41;96297.72;4973538;28;20196;-68
2021/09/09 05:58:06;;;;;;;11.00;7.00;;;;;;;22.78;50.16;96303.59;4961560;28;20190;-69
2021/09/09 06:00:32;;;;;;;13.47;8.53;;;;;;;22.91;49.89;96297.06;4956740;28;20189;-66
2021/09/09 06:03:02;;;;;;;10.07;7.40;;;;;;;22.96;49.57;96310.44;4970131;28;20325;-69
2021/09/09 06:05:28;;;;;;;9.03;7.20;;;;;;;22.90;49.56;96308.81;4973242;28;20185;-68
2021/09/09 06:07:54;;;;;;;10.10;8.30;;;;;;;22.80;50.05;96310.31;4973037;28;20444;-67
2021/09/09 06:10:19;;;;;;;11.47;7.90;;;;;;;22.94;49.92;96313.38;4972148;28;20944;-67
2021/09/09 06:12:45;;;;;;;8.00;7.20;;;;;;;22.77;50.35;96318.84;4963841;28;20297;-67
2021/09/09 06:15:10;;;;;;;12.00;8.20;;;;;;;22.98;49.83;96308.34;4968733;28;20547;-67
2021/09/09 06:17:36;;;;;;;9.93;7.47;;;;;;;22.57;50.69;96319.44;4972349;28;20656;-67
2021/09/09 06:20:03;;;;;;;10.53;8.03;;;;;;;23.01;49.80;96321.19;4966221;28;20229;-68
2021/09/09 06:22:29;;;;;;;9.40;8.30;;;;;;;22.42;51.27;96313.91;4963424;28;20236;-68
2021/09/09 06:24:55;;;;;;;9.50;8.20;;;;;;;23.15;49.38;96314.38;4970776;28;20425;-68
2021/09/09 06:27:20;;;;;;;13.73;8.30;;;;;;;24.02;47.45;96305.34;4970859;28;20523;-68
2021/09/09 06:29:46;;;;;;;11.57;7.40;;;;;;;24.33;46.47;96321.50;4971715;28;20205;-65
2021/09/09 06:32:11;;;;;;;10.37;7.00;;;;;;;24.80;45.21;96313.66;4972214;28;20202;-67
2021/09/09 06:34:37;;;;;;;7.33;6.63;;;;;;;23.82;47.60;96318.59;4972780;28;20192;-68
2021/09/09 06:37:03;;;;;;;11.70;7.80;;;;;;;23.81;47.56;96323.13;4971827;28;20186;-66
2021/09/09 06:39:29;;;;;;;9.53;7.70;;;;;;;23.89;47.57;96319.16;4966303;28;20189;-66
2021/09/09 06:41:54;;;;;;;11.93;8.00;;;;;;;23.90;47.56;96318.91;4972410;28;20248;-67
2021/09/09 06:44:20;;;;;;;12.10;7.17;;;;;;;23.83;47.95;96328.22;4972575;28;20975;-68
2021/09/09 06:46:45;;;;;;;12.73;7.67;;;;;;;23.64;48.72;96323.31;4969088;28;20194;-67
2021/09/09 06:49:11;;;;;;;10.93;7.80;;;;;;;24.56;46.60;96316.78;4962859;28;20240;-66
2021/09/09 06:51:37;;;;;;;7.77;6.93;;;;;;;25.19;45.59;96326.53;4967830;28;20206;-67
2021/09/09 06:54:03;;;;;;;13.07;7.03;;;;;;;24.46;46.58;96322.09;4972410;28;20644;-66
2021/09/09 06:56:28;;;;;;;13.03;7.83;;;;;;;24.97;45.79;96322.22;4972436;28;20213;-69
2021/09/09 06:58:54;;;;;;;11.40;7.33;;;;;;;24.39;47.05;96323.16;4963540;28;20866;-68
2021/09/09 07:01:20;;;;;;;9.73;7.23;;;;;;;24.42;47.17;96324.50;4972346;28;20174;-68
2021/09/09 07:03:46;;;;;;;13.60;8.30;;;;;;;24.14;48.77;96323.06;4972516;28;20182;-68
2021/09/09 07:06:11;;;;;;;18.77;8.03;;;;;;;24.21;48.02;96319.06;4971839;28;20444;-68
2021/09/09 07:08:37;;;;;;;9.13;7.37;;;;;;;24.05;48.53;96315.53;4972328;28;20211;-68
2021/09/09 07:11:03;;;;;;;9.03;8.10;;;;;;;24.14;48.46;96323.84;4972304;28;20193;-68
2021/09/09 07:13:29;;;;;;;14.23;7.40;;;;;;;24.26;48.32;96326.31;4971633;28;20217;-67
2021/09/09 07:15:58;;;;;;;8.50;7.43;;;;;;;24.60;47.83;96325.09;4969141;28;20212;-68
2021/09/09 07:18:25;;;;;;;8.70;7.30;;;;;;;23.97;48.95;96331.28;4956999;28;20177;-67
2021/09/09 07:20:51;;;;;;;9.63;7.50;;;;;;;24.68;47.60;96321.88;4967689;28;20814;-67
2021/09/09 07:23:17;;;;;;;9.63;7.03;;;;;;;25.41;46.01;96320.13;4965030;28;20520;-68
2021/09/09 07:25:43;;;;;;;11.30;7.60;;;;;;;25.68;45.56;96324.38;4963216;28;20517;-67
2021/09/09 07:28:08;;;;;;;8.97;7.50;;;;;;;25.94;44.99;96324.34;4970896;28;20269;-68
2021/09/09 07:30:35;;;;;;;10.40;7.30;;;;;;;25.80;44.42;96332.94;4965443;28;20206;-66
2021/09/09 07:33:01;;;;;;;8.90;6.90;;;;;;;25.84;43.82;96325.16;4969926;28;20217;-68
2021/09/09 07:35:27;;;;;;;9.80;7.03;;;;;;;25.98;43.51;96334.25;4972131;28;20421;-67
2021/09/09 07:37:52;;;;;;;9.60;7.50;;;;;;;26.10;43.08;96338.50;4964467;28;20514;-66
2021/09/09 07:40:18;;;;;;;7.90;7.20;;;;;;;26.15;43.12;96336.63;4972399;28;20200;-66
2021/09/09 07:42:43;;;;;;;9.53;7.27;;;;;;;26.09;43.05;96342.25;4971899;28;20201;-67
2021/09/09 07:45:10;;;;;;;11.93;7.97;;;;;;;25.88;43.51;96345.00;4968551;28;20720;-66
2021/09/09 07:47:35;;;;;;;10.37;7.60;;;;;;;25.89;43.32;96343.94;4971813;28;20190;-66
2021/09/09 07:50:01;;;;;;;8.43;6.83;;;;;;;26.32;42.78;96348.94;4951338;28;20489;-66
2021/09/09 07:52:26;;;;;;;10.83;6.80;;;;;;;26.32;42.50;96346.25;4971030;28;20360;-66
2021/09/09 07:54:52;;;;;;;7.60;6.77;;;;;;;26.39;42.30;96357.47;4967589;28;20202;-66
2021/09/09 07:57:18;;;;;;;8.63;7.77;;;;;;;26.00;43.61;96347.38;4953527;28;20177;-68
2021/09/09 07:59:44;;;;;;;11.53;7.60;;;;;;;26.34;42.47;96358.31;4960737;28;20190;-67
2021/09/09 08:02:09;;;;;;;11.00;7.10;;;;;;;25.99;42.83;96353.81;4966869;28;20683;-68
2021/09/09 08:04:35;;;;;;;8.47;6.80;;;;;;;26.19;42.67;96359.19;4961877;28;20201;-68
2021/09/09 08:07:00;;;;;;;10.27;6.77;;;;;;;25.95;42.91;96358.16;4971349;28;20273;-67
2021/09/09 08:09:26;;;;;;;15.10;7.03;;;;;;;26.25;42.18;96359.16;4971809;28;20198;-67
2021/09/09 08:11:51;;;;;;;7.10;6.23;;;;;;;26.14;42.41;96356.50;4970187;28;20593;-67
2021/09/09 08:14:17;;;;;;;10.90;6.97;;;;;;;25.95;42.32;96368.88;4968398;28;20368;-68
2021/09/09 08:16:43;;;;;;;13.73;6.27;;;;;;;26.19;42.56;96367.22;4971698;28;20212;-69
2021/09/09 08:19:08;;;;;;;9.47;7.20;;;;;;;26.29;41.97;96368.28;4971541;28;20190;-69
2021/09/09 08:21:34;;;;;;;8.17;6.60;;;;;;;26.30;41.70;96367.19;4944391;28;20265;-67
2021/09/09 08:23:59;;;;;;;10.20;7.43;;;;;;;25.96;42.67;96371.28;4970152;28;20261;-68
2021/09/09 08:26:25;;;;;;;8.90;6.50;;;;;;;26.21;41.78;96359.69;4973149;28;20186;-69
2021/09/09 08:28:50;;;;;;;7.97;7.10;;;;;;;25.67;42.93;96363.81;4974796;28;20198;-68
2021/09/09 08:31:16;;;;;;;7.60;6.63;;;;;;;26.41;41.85;96363.38;4975126;28;20276;-67
2021/09/09 08:33:42;;;;;;;13.00;6.47;;;;;;;26.44;41.88;96370.91;4975073;28;20217;-68
2021/09/09 08:36:09;;;;;;;7.23;6.53;;;;;;;26.26;42.07;96374.19;4975049;28;20194;-68
2021/09/09 08:38:35;;;;;;;10.13;6.97;;;;;;;26.64;41.34;96364.63;4962360;28;20470;-67
2021/09/09 08:41:03;;;;;;;7.90;7.10;;;;;;;26.43;41.68;96368.47;4972910;28;21072;-69
2021/09/09 08:43:29;;;;;;;7.70;6.10;;;;;;;26.26;41.91;96376.88;4974690;28;20209;-68
2021/09/09 08:45:57;;;;;;;10.00;6.20;;;;;;;26.76;41.82;96376.94;4974482;28;20425;-67
2021/09/09 08:48:23;;;;;;;7.60;6.77;;;;;;;27.44;40.34;96381.66;4973610;28;20421;-67
2021/09/09 08:50:49;;;;;;;7.20;6.50;;;;;;;26.76;41.78;96395.75;4968325;28;20437;-68
2021/09/09 08:53:15;;;;;;;7.27;6.57;;;;;;;26.66;42.51;96401.97;4974800;28;20825;-67
2021/09/09 08:55:43;;;;;;;9.23;6.40;;;;;;;27.28;40.71;96393.56;4974784;28;20562;-68
2021/09/09 08:58:09;;;;;;;7.67;6.87;;;;;;;27.17;41.08;96398.19;4974598;28;20464;-69
2021/09/09 09:00:35;;;;;;;9.40;6.70;;;;;;;27.62;40.09;96398.16;4973632;28;20425;-69
2021/09/09 09:03:00;;;;;;;9.10;6.70;;;;;;;27.09;41.04;96396.91;4943179;28;20218;-69
2021/09/09 09:05:26;;;;;;;13.10;6.77;;;;;;;27.40;40.45;96402.09;4975293;28;20578;-68
2021/09/09 09:07:58;;;;;;;8.53;6.40;;;;;;;27.48;40.03;96398.03;4974365;28;20558;-68
2021/09/09 09:10:24;;;;;;;6.93;6.23;;;;;;;27.53;39.82;96400.69;4974912;28;20182;-66
2021/09/09 09:12:50;;;;;;;10.17;6.60;;;;;;;26.85;41.45;96402.16;4972986;28;20469;-67
2021/09/09 09:15:23;;;;;;;10.17;7.33;;;;;;;26.72;42.23;96400.84;4971131;28;20232;-67
2021/09/09 09:17:56;;;;;;;6.33;5.73;;;;;;;26.80;42.18;96403.00;4975079;28;20186;-68
2021/09/09 09:20:22;;;;;;;9.80;6.60;;;;;;;27.81;40.48;96390.19;4969507;28;20417;-68
2021/09/09 09:22:48;;;;;;;14.40;7.03;;;;;;;27.48;41.39;96398.03;4966567;28;20460;-68
2021/09/09 09:25:14;;;;;;;13.27;6.90;;;;;;;27.02;42.00;96403.69;4974729;28;20429;-68
2021/09/09 09:27:48;;;;;;;15.83;7.10;;;;;;;27.57;41.13;96409.00;4973022;28;20198;-68
2021/09/09 09:30:14;;;;;;;9.80;6.93;;;;;;;26.86;42.70;96409.16;4967347;28;20193;-67
2021/09/09 09:32:48;;;;;;;7.80;6.07;;;;;;;27.40;41.96;96406.66;4974079;28;20895;-67
2021/09/09 09:35:21;;;;;;;8.53;6.50;;;;;;;27.32;41.77;96402.69;4951723;28;20423;-67
2021/09/09 09:38:05;;;;;;;9.63;6.60;;;;;;;27.43;41.43;96398.84;4969739;28;20456;-67
2021/09/09 09:40:33;;;;;;;6.93;6.23;;;;;;;27.67;40.92;96400.81;4974411;28;20773;-66
2021/09/09 09:43:06;;;;;;;6.93;6.23;;;;;;;27.32;41.50;96400.00;4974222;28;20445;-67
2021/09/09 09:45:31;;;;;;;10.03;6.40;;;;;;;28.34;39.14;96404.75;4972870;28;20425;-67
2021/09/09 09:47:57;;;;;;;7.10;6.40;;;;;;;28.53;38.77;96396.72;4966122;28;20577;-66
2021/09/09 09:50:23;;;;;;;6.17;5.67;;;;;;;29.04;38.01;96400.69;4969137;28;20637;-67
2021/09/09 09:52:51;;;;;;;10.37;5.60;;;;;;;29.26;36.62;96402.00;4973677;28;20532;-68
2021/09/09 09:55:16;;;;;;;7.20;5.70;;;;;;;29.02;37.76;96393.97;4963505;28;20848;-66
2021/09/09 09:57:55;;;;;;;7.50;5.50;;;;;;;28.39;38.19;96404.72;4973436;28;20433;-67
2021/09/09 10:00:22;;;;;;;7.97;5.40;;;;;;;28.96;37.06;96395.94;4973627;28;20233;-66
2021/09/09 10:02:48;;;;;;;5.90;5.30;;;;;;;29.01;36.80;96403.16;4973833;28;20469;-66
2021/09/09 10:05:14;;;;;;;8.20;5.33;;;;;;;29.01;36.67;96398.56;4973219;28;20519;-66
2021/09/09 10:07:40;;;;;;;6.57;5.23;;;;;;;29.39;35.30;96397.75;4973187;28;20861;-67
2021/09/09 10:10:06;;;;;;;9.63;5.07;;;;;;;29.14;36.50;96402.41;4973265;28;20558;-69
2021/09/09 10:12:32;;;;;;;8.27;6.20;;;;;;;29.19;36.41;96410.44;4962269;28;21008;-67
2021/09/09 10:15:00;;;;;;;7.40;5.43;;;;;;;29.27;36.64;96400.91;4952778;28;20446;-67
2021/09/09 10:17:27;;;;;;;12.20;5.63;;;;;;;28.75;37.17;96401.63;4973035;28;20773;-66
2021/09/09 10:19:52;;;;;;;8.83;5.20;;;;;;;28.39;37.76;96398.50;4968312;28;20430;-67
2021/09/09 10:22:20;;;;;;;8.80;5.10;;;;;;;28.94;37.19;96398.94;4964865;28;20444;-66
2021/09/09 10:24:50;;;;;;;6.33;5.30;;;;;;;29.46;36.68;96398.19;4959167;28;20580;-66
2021/09/09 10:27:27;;;;;;;6.03;5.50;;;;;;;29.47;36.07;96393.59;4935498;29;20907;-67
2021/09/09 10:30:05;;;;;;;9.57;4.63;;;;;;;29.51;35.65;96392.72;4960495;28;20433;-67
2021/09/09 10:32:37;;;;;;;8.87;5.57;;;;;;;29.23;36.21;96398.00;4975166;28;20572;-68
2021/09/09 10:35:18;;;;;;;6.77;5.40;;;;;;;30.03;35.44;96392.66;4974124;28;20759;-68
2021/09/09 10:37:48;;;;;;;6.13;5.23;;;;;;;30.02;34.99;96395.66;4973104;28;20421;-66
2021/09/09 10:40:31;;;;;;;7.53;4.97;;;;;;;30.65;34.15;96396.09;4972751;28;20417;-69
2021/09/09 10:42:57;;;;;;;5.97;4.50;;;;;;;28.56;37.32;96400.72;4971274;28;20456;-66
2021/09/09 10:45:35;;;;;;;4.83;4.43;;;;;;;29.18;36.63;96399.94;4972826;28;20479;-67
2021/09/09 10:48:02;;;;;;;10.10;4.27;;;;;;;30.03;35.15;96397.25;4972195;28;20437;-66
2021/09/09 10:50:28;;;;;;;5.30;4.80;;;;;;;30.66;34.41;96394.97;4967641;28;20437;-66
2021/09/09 10:53:04;;;;;;;6.37;4.87;;;;;;;30.05;35.44;96392.34;4972332;28;20469;-66
2021/09/09 10:55:31;;;;;;;9.20;5.10;;;;;;;30.37;34.72;96390.66;4973296;28;20704;-66
2021/09/09 10:58:15;;;;;;;11.30;4.70;;;;;;;30.12;34.85;96392.75;4972304;28;20797;-68
2021/09/09 11:01:05;;;;;;;4.93;4.30;;;;;;;30.36;34.82;96386.38;4964714;28;20425;-66
2021/09/09 11:03:38;;;;;;;5.40;4.60;;;;;;;30.77;34.32;96390.94;4974676;28;20441;-67
2021/09/09 11:06:06;;;;;;;5.60;4.77;;;;;;;30.23;34.87;96381.78;4973452;28;20437;-66
2021/09/09 11:08:32;;;;;;;5.50;4.80;;;;;;;31.21;34.01;96387.88;4970861;28;20452;-66
2021/09/09 11:10:58;;;;;;;13.10;4.87;;;;;;;30.69;34.47;96383.56;4972343;28;20437;-67
2021/09/09 11:13:24;;;;;;;5.30;4.80;;;;;;;30.55;35.05;96380.09;4970835;28;20296;-66
2021/09/09 11:15:50;;;;;;;6.20;4.97;;;;;;;30.97;34.10;96372.69;4972388;28;20181;-67
2021/09/09 11:18:27;;;;;;;4.90;4.50;;;;;;;29.91;35.35;96370.72;4971844;28;20520;-66
2021/09/09 11:21:05;;;;;;;6.13;5.30;;;;;;;30.55;33.70;96371.97;4966657;28;20189;-66
2021/09/09 11:23:32;;;;;;;11.27;4.70;;;;;;;30.50;33.75;96379.03;4953602;28;20879;-66
2021/09/09 11:26:10;;;;;;;5.23;4.80;;;;;;;29.91;34.52;96373.44;4967892;28;20780;-69